sensor_id;sensor_type;location;lat;lon;timestamp;P1;durP1;ratioP1;P2;durP2;ratioP2
52786;SDS011;38661;53.152;5.846;2023-10-09T00:00:50;18.33;;;9.77;;
52786;SDS011;38661;53.152;5.846;2023-10-09T00:03:19;25.52;;;11.60;;
52786;SDS011;38661;53.152;5.846;2023-10-09T00:05:48;22.42;;;11.45;;
52786;SDS011;38661;53.152;5.846;2023-10-09T00:08:18;21.25;;;10.60;;
52786;SDS011;38661;53.152;5.846;2023-10-09T00:10:47;18.02;;;11.68;;
52786;SDS011;38661;53.152;5.846;2023-10-09T00:13:18;22.83;;;12.40;;
52786;SDS011;38661;53.152;5.846;2023-10-09T00:15:44;25.60;;;11.52;;
52786;SDS011;38661;53.152;5.846;2023-10-09T00:18:17;23.13;;;12.80;;
52786;SDS011;38661;53.152;5.846;2023-10-09T00:20:48;17.63;;;10.68;;
52786;SDS011;38661;53.152;5.846;2023-10-09T00:23:19;21.70;;;13.48;;
52786;SDS011;38661;53.152;5.846;2023-10-09T00:25:49;23.90;;;13.50;;
52786;SDS011;38661;53.152;5.846;2023-10-09T00:28:32;25.88;;;15.27;;
52786;SDS011;38661;53.152;5.846;2023-10-09T00:30:59;26.30;;;15.20;;
52786;SDS011;38661;53.152;5.846;2023-10-09T00:33:29;32.58;;;16.80;;
52786;SDS011;38661;53.152;5.846;2023-10-09T00:35:55;34.38;;;18.70;;
52786;SDS011;38661;53.152;5.846;2023-10-09T00:38:20;33.60;;;17.83;;
52786;SDS011;38661;53.152;5.846;2023-10-09T00:40:50;42.00;;;20.95;;
52786;SDS011;38661;53.152;5.846;2023-10-09T00:43:28;40.40;;;22.33;;
52786;SDS011;38661;53.152;5.846;2023-10-09T00:45:55;43.88;;;22.20;;
52786;SDS011;38661;53.152;5.846;2023-10-09T00:48:41;40.45;;;23.00;;
52786;SDS011;38661;53.152;5.846;2023-10-09T00:51:07;43.80;;;23.85;;
52786;SDS011;38661;53.152;5.846;2023-10-09T00:53:53;47.30;;;26.25;;
52786;SDS011;38661;53.152;5.846;2023-10-09T00:56:26;50.25;;;27.25;;
52786;SDS011;38661;53.152;5.846;2023-10-09T00:58:53;46.30;;;26.75;;
52786;SDS011;38661;53.152;5.846;2023-10-09T01:01:25;53.28;;;29.63;;
52786;SDS011;38661;53.152;5.846;2023-10-09T01:04:00;51.22;;;26.80;;
52786;SDS011;38661;53.152;5.846;2023-10-09T01:06:36;52.03;;;29.52;;
52786;SDS011;38661;53.152;5.846;2023-10-09T01:09:10;61.65;;;31.10;;
52786;SDS011;38661;53.152;5.846;2023-10-09T01:11:42;66.75;;;32.15;;
52786;SDS011;38661;53.152;5.846;2023-10-09T01:14:28;66.15;;;34.92;;
52786;SDS011;38661;53.152;5.846;2023-10-09T01:16:53;68.78;;;35.67;;
52786;SDS011;38661;53.152;5.846;2023-10-09T01:19:20;68.10;;;36.28;;
52786;SDS011;38661;53.152;5.846;2023-10-09T01:21:52;69.13;;;35.47;;
52786;SDS011;38661;53.152;5.846;2023-10-09T01:24:18;68.47;;;34.13;;
52786;SDS011;38661;53.152;5.846;2023-10-09T01:26:45;67.60;;;36.63;;
52786;SDS011;38661;53.152;5.846;2023-10-09T01:29:16;76.88;;;36.42;;
52786;SDS011;38661;53.152;5.846;2023-10-09T01:31:50;66.80;;;35.35;;
52786;SDS011;38661;53.152;5.846;2023-10-09T01:34:26;70.80;;;37.67;;
52786;SDS011;38661;53.152;5.846;2023-10-09T01:37:04;73.53;;;37.20;;
52786;SDS011;38661;53.152;5.846;2023-10-09T01:39:36;73.38;;;37.08;;
52786;SDS011;38661;53.152;5.846;2023-10-09T01:42:06;72.38;;;37.13;;
52786;SDS011;38661;53.152;5.846;2023-10-09T01:44:32;79.20;;;38.55;;
52786;SDS011;38661;53.152;5.846;2023-10-09T01:47:08;68.60;;;37.40;;
52786;SDS011;38661;53.152;5.846;2023-10-09T01:49:38;69.82;;;38.20;;
52786;SDS011;38661;53.152;5.846;2023-10-09T01:52:11;71.95;;;38.05;;
52786;SDS011;38661;53.152;5.846;2023-10-09T01:54:41;69.32;;;38.05;;
52786;SDS011;38661;53.152;5.846;2023-10-09T01:57:12;70.95;;;38.70;;
52786;SDS011;38661;53.152;5.846;2023-10-09T01:59:41;79.70;;;39.88;;
52786;SDS011;38661;53.152;5.846;2023-10-09T02:02:12;73.07;;;38.33;;
52786;SDS011;38661;53.152;5.846;2023-10-09T02:04:41;67.18;;;35.78;;
52786;SDS011;38661;53.152;5.846;2023-10-09T02:07:07;74.18;;;40.90;;
52786;SDS011;38661;53.152;5.846;2023-10-09T02:09:34;72.13;;;37.50;;
52786;SDS011;38661;53.152;5.846;2023-10-09T02:12:01;68.72;;;38.28;;
52786;SDS011;38661;53.152;5.846;2023-10-09T02:14:27;68.45;;;38.88;;
52786;SDS011;38661;53.152;5.846;2023-10-09T02:16:53;67.90;;;37.13;;
52786;SDS011;38661;53.152;5.846;2023-10-09T02:19:31;72.65;;;39.28;;
52786;SDS011;38661;53.152;5.846;2023-10-09T02:22:00;71.70;;;38.90;;
52786;SDS011;38661;53.152;5.846;2023-10-09T02:24:40;68.75;;;39.15;;
52786;SDS011;38661;53.152;5.846;2023-10-09T02:27:17;70.38;;;39.72;;
52786;SDS011;38661;53.152;5.846;2023-10-09T02:30:03;71.10;;;38.80;;
52786;SDS011;38661;53.152;5.846;2023-10-09T02:32:40;63.03;;;37.10;;
52786;SDS011;38661;53.152;5.846;2023-10-09T02:35:08;63.17;;;36.67;;
52786;SDS011;38661;53.152;5.846;2023-10-09T02:37:46;66.47;;;38.33;;
52786;SDS011;38661;53.152;5.846;2023-10-09T02:40:13;64.45;;;37.17;;
52786;SDS011;38661;53.152;5.846;2023-10-09T02:42:48;60.65;;;35.40;;
52786;SDS011;38661;53.152;5.846;2023-10-09T02:45:15;64.10;;;37.13;;
52786;SDS011;38661;53.152;5.846;2023-10-09T02:47:42;62.88;;;35.40;;
52786;SDS011;38661;53.152;5.846;2023-10-09T02:50:13;61.35;;;35.35;;
52786;SDS011;38661;53.152;5.846;2023-10-09T02:52:46;60.13;;;36.08;;
52786;SDS011;38661;53.152;5.846;2023-10-09T02:55:18;59.08;;;33.17;;
52786;SDS011;38661;53.152;5.846;2023-10-09T02:57:50;56.58;;;32.88;;
52786;SDS011;38661;53.152;5.846;2023-10-09T03:00:21;58.72;;;34.33;;
52786;SDS011;38661;53.152;5.846;2023-10-09T03:02:59;56.75;;;33.78;;
52786;SDS011;38661;53.152;5.846;2023-10-09T03:05:25;52.22;;;30.90;;
52786;SDS011;38661;53.152;5.846;2023-10-09T03:07:54;50.17;;;28.77;;
52786;SDS011;38661;53.152;5.846;2023-10-09T03:10:22;47.55;;;28.80;;
52786;SDS011;38661;53.152;5.846;2023-10-09T03:12:48;45.45;;;26.85;;
52786;SDS011;38661;53.152;5.846;2023-10-09T03:15:21;39.15;;;26.50;;
52786;SDS011;38661;53.152;5.846;2023-10-09T03:17:47;44.65;;;26.10;;
52786;SDS011;38661;53.152;5.846;2023-10-09T03:20:14;38.90;;;25.30;;
52786;SDS011;38661;53.152;5.846;2023-10-09T03:22:44;37.30;;;23.85;;
52786;SDS011;38661;53.152;5.846;2023-10-09T03:25:10;37.97;;;21.75;;
52786;SDS011;38661;53.152;5.846;2023-10-09T03:27:42;40.03;;;22.65;;
52786;SDS011;38661;53.152;5.846;2023-10-09T03:30:15;32.33;;;19.33;;
52786;SDS011;38661;53.152;5.846;2023-10-09T03:32:51;29.83;;;18.50;;
52786;SDS011;38661;53.152;5.846;2023-10-09T03:35:21;28.05;;;16.52;;
52786;SDS011;38661;53.152;5.846;2023-10-09T03:37:56;21.70;;;14.30;;
52786;SDS011;38661;53.152;5.846;2023-10-09T03:40:36;24.55;;;13.45;;
52786;SDS011;38661;53.152;5.846;2023-10-09T03:43:04;20.17;;;11.73;;
52786;SDS011;38661;53.152;5.846;2023-10-09T03:45:30;20.52;;;9.73;;
52786;SDS011;38661;53.152;5.846;2023-10-09T03:48:00;20.45;;;12.40;;
52786;SDS011;38661;53.152;5.846;2023-10-09T03:50:46;18.88;;;11.73;;
52786;SDS011;38661;53.152;5.846;2023-10-09T03:53:12;27.58;;;11.48;;
52786;SDS011;38661;53.152;5.846;2023-10-09T03:55:39;17.38;;;11.35;;
52786;SDS011;38661;53.152;5.846;2023-10-09T03:58:08;14.52;;;9.60;;
52786;SDS011;38661;53.152;5.846;2023-10-09T04:00:37;18.95;;;10.48;;
52786;SDS011;38661;53.152;5.846;2023-10-09T04:03:14;20.15;;;10.05;;
52786;SDS011;38661;53.152;5.846;2023-10-09T04:05:40;17.42;;;10.02;;
52786;SDS011;38661;53.152;5.846;2023-10-09T04:08:08;17.38;;;9.73;;
52786;SDS011;38661;53.152;5.846;2023-10-09T04:10:38;17.73;;;9.00;;
52786;SDS011;38661;53.152;5.846;2023-10-09T04:13:16;23.88;;;10.57;;
52786;SDS011;38661;53.152;5.846;2023-10-09T04:15:51;17.20;;;9.48;;
52786;SDS011;38661;53.152;5.846;2023-10-09T04:18:19;22.17;;;10.75;;
52786;SDS011;38661;53.152;5.846;2023-10-09T04:20:46;21.63;;;9.95;;
52786;SDS011;38661;53.152;5.846;2023-10-09T04:26:22;20.52;;;10.73;;
52786;SDS011;38661;53.152;5.846;2023-10-09T04:28:50;15.73;;;9.82;;
52786;SDS011;38661;53.152;5.846;2023-10-09T04:31:21;16.45;;;9.57;;
52786;SDS011;38661;53.152;5.846;2023-10-09T04:33:58;21.85;;;11.00;;
52786;SDS011;38661;53.152;5.846;2023-10-09T04:36:43;18.25;;;8.88;;
52786;SDS011;38661;53.152;5.846;2023-10-09T04:39:11;20.08;;;10.32;;
52786;SDS011;38661;53.152;5.846;2023-10-09T04:41:37;23.45;;;9.85;;
52786;SDS011;38661;53.152;5.846;2023-10-09T04:44:09;20.63;;;10.63;;
52786;SDS011;38661;53.152;5.846;2023-10-09T04:46:48;19.63;;;10.35;;
52786;SDS011;38661;53.152;5.846;2023-10-09T04:49:35;17.60;;;10.18;;
52786;SDS011;38661;53.152;5.846;2023-10-09T04:52:17;23.83;;;11.25;;
52786;SDS011;38661;53.152;5.846;2023-10-09T04:54:53;28.55;;;10.85;;
52786;SDS011;38661;53.152;5.846;2023-10-09T04:57:47;17.48;;;10.38;;
52786;SDS011;38661;53.152;5.846;2023-10-09T05:00:31;17.70;;;9.73;;
52786;SDS011;38661;53.152;5.846;2023-10-09T05:02:57;19.90;;;9.82;;
52786;SDS011;38661;53.152;5.846;2023-10-09T05:05:46;23.77;;;10.57;;
52786;SDS011;38661;53.152;5.846;2023-10-09T05:08:15;23.40;;;10.63;;
52786;SDS011;38661;53.152;5.846;2023-10-09T05:10:48;21.67;;;9.25;;
52786;SDS011;38661;53.152;5.846;2023-10-09T05:13:27;16.15;;;9.82;;
52786;SDS011;38661;53.152;5.846;2023-10-09T05:16:06;21.13;;;10.63;;
52786;SDS011;38661;53.152;5.846;2023-10-09T05:18:51;19.23;;;11.23;;
52786;SDS011;38661;53.152;5.846;2023-10-09T05:24:18;21.23;;;11.40;;
52786;SDS011;38661;53.152;5.846;2023-10-09T05:26:48;21.27;;;11.38;;
52786;SDS011;38661;53.152;5.846;2023-10-09T05:31:53;23.50;;;11.15;;
52786;SDS011;38661;53.152;5.846;2023-10-09T05:34:29;17.95;;;10.73;;
52786;SDS011;38661;53.152;5.846;2023-10-09T05:37:14;19.77;;;10.93;;
52786;SDS011;38661;53.152;5.846;2023-10-09T05:39:47;22.23;;;11.50;;
52786;SDS011;38661;53.152;5.846;2023-10-09T05:42:26;20.55;;;11.50;;
52786;SDS011;38661;53.152;5.846;2023-10-09T05:48:07;22.90;;;10.45;;
52786;SDS011;38661;53.152;5.846;2023-10-09T05:50:38;24.15;;;10.45;;
52786;SDS011;38661;53.152;5.846;2023-10-09T05:53:24;23.85;;;10.13;;
52786;SDS011;38661;53.152;5.846;2023-10-09T05:56:08;21.95;;;10.77;;
52786;SDS011;38661;53.152;5.846;2023-10-09T05:58:53;22.40;;;10.70;;
52786;SDS011;38661;53.152;5.846;2023-10-09T06:01:31;26.80;;;11.45;;
52786;SDS011;38661;53.152;5.846;2023-10-09T06:04:15;22.10;;;10.75;;
52786;SDS011;38661;53.152;5.846;2023-10-09T06:06:41;21.98;;;10.10;;
52786;SDS011;38661;53.152;5.846;2023-10-09T06:09:11;19.65;;;9.60;;
52786;SDS011;38661;53.152;5.846;2023-10-09T06:11:44;22.13;;;11.00;;
52786;SDS011;38661;53.152;5.846;2023-10-09T06:14:20;25.13;;;9.48;;
52786;SDS011;38661;53.152;5.846;2023-10-09T06:16:55;23.83;;;9.52;;
52786;SDS011;38661;53.152;5.846;2023-10-09T06:19:21;20.40;;;9.05;;
52786;SDS011;38661;53.152;5.846;2023-10-09T06:21:47;21.23;;;9.57;;
52786;SDS011;38661;53.152;5.846;2023-10-09T06:24:31;21.42;;;9.50;;
52786;SDS011;38661;53.152;5.846;2023-10-09T06:27:07;18.08;;;9.65;;
52786;SDS011;38661;53.152;5.846;2023-10-09T06:29:37;21.67;;;9.32;;
52786;SDS011;38661;53.152;5.846;2023-10-09T06:32:15;23.75;;;10.00;;
52786;SDS011;38661;53.152;5.846;2023-10-09T06:34:44;18.58;;;8.88;;
52786;SDS011;38661;53.152;5.846;2023-10-09T06:37:12;18.63;;;9.27;;
52786;SDS011;38661;53.152;5.846;2023-10-09T06:39:50;22.67;;;9.65;;
52786;SDS011;38661;53.152;5.846;2023-10-09T06:42:28;21.73;;;9.23;;
52786;SDS011;38661;53.152;5.846;2023-10-09T06:47:39;22.15;;;9.45;;
52786;SDS011;38661;53.152;5.846;2023-10-09T06:50:12;22.35;;;10.05;;
52786;SDS011;38661;53.152;5.846;2023-10-09T06:52:47;26.27;;;10.30;;
52786;SDS011;38661;53.152;5.846;2023-10-09T06:55:25;19.73;;;9.38;;
52786;SDS011;38661;53.152;5.846;2023-10-09T06:57:59;22.35;;;9.57;;
52786;SDS011;38661;53.152;5.846;2023-10-09T07:00:38;24.38;;;10.35;;
52786;SDS011;38661;53.152;5.846;2023-10-09T07:03:19;23.00;;;9.00;;
52786;SDS011;38661;53.152;5.846;2023-10-09T07:06:07;20.83;;;9.93;;
52786;SDS011;38661;53.152;5.846;2023-10-09T07:08:57;18.63;;;8.90;;
52786;SDS011;38661;53.152;5.846;2023-10-09T07:11:38;21.85;;;9.02;;
52786;SDS011;38661;53.152;5.846;2023-10-09T07:14:09;22.20;;;9.63;;
52786;SDS011;38661;53.152;5.846;2023-10-09T07:16:58;19.90;;;9.95;;
52786;SDS011;38661;53.152;5.846;2023-10-09T07:19:30;19.88;;;9.02;;
52786;SDS011;38661;53.152;5.846;2023-10-09T07:22:03;23.05;;;10.40;;
52786;SDS011;38661;53.152;5.846;2023-10-09T07:24:32;22.63;;;9.75;;
52786;SDS011;38661;53.152;5.846;2023-10-09T07:27:09;18.02;;;8.48;;
52786;SDS011;38661;53.152;5.846;2023-10-09T07:29:37;18.23;;;9.30;;
52786;SDS011;38661;53.152;5.846;2023-10-09T07:32:13;19.67;;;9.68;;
52786;SDS011;38661;53.152;5.846;2023-10-09T07:34:49;15.10;;;9.02;;
52786;SDS011;38661;53.152;5.846;2023-10-09T07:37:24;24.48;;;10.05;;
52786;SDS011;38661;53.152;5.846;2023-10-09T07:39:58;19.30;;;9.25;;
52786;SDS011;38661;53.152;5.846;2023-10-09T07:42:32;25.25;;;9.93;;
52786;SDS011;38661;53.152;5.846;2023-10-09T07:45:07;20.40;;;10.20;;
52786;SDS011;38661;53.152;5.846;2023-10-09T07:47:48;25.17;;;10.30;;
52786;SDS011;38661;53.152;5.846;2023-10-09T07:50:37;19.48;;;9.68;;
52786;SDS011;38661;53.152;5.846;2023-10-09T07:53:13;25.42;;;10.02;;
52786;SDS011;38661;53.152;5.846;2023-10-09T07:55:40;20.92;;;9.65;;
52786;SDS011;38661;53.152;5.846;2023-10-09T07:58:11;16.88;;;7.90;;
52786;SDS011;38661;53.152;5.846;2023-10-09T08:00:37;23.70;;;9.48;;
52786;SDS011;38661;53.152;5.846;2023-10-09T08:03:23;21.52;;;9.18;;
52786;SDS011;38661;53.152;5.846;2023-10-09T08:05:52;20.42;;;9.38;;
52786;SDS011;38661;53.152;5.846;2023-10-09T08:08:32;18.65;;;9.77;;
52786;SDS011;38661;53.152;5.846;2023-10-09T08:10:58;23.50;;;9.70;;
52786;SDS011;38661;53.152;5.846;2023-10-09T08:13:42;18.02;;;8.38;;
52786;SDS011;38661;53.152;5.846;2023-10-09T08:16:26;22.35;;;9.02;;
52786;SDS011;38661;53.152;5.846;2023-10-09T08:19:02;19.30;;;8.40;;
52786;SDS011;38661;53.152;5.846;2023-10-09T08:21:48;25.45;;;9.15;;
52786;SDS011;38661;53.152;5.846;2023-10-09T08:24:32;21.85;;;8.23;;
52786;SDS011;38661;53.152;5.846;2023-10-09T08:27:06;23.80;;;9.32;;
52786;SDS011;38661;53.152;5.846;2023-10-09T08:29:51;21.50;;;8.75;;
52786;SDS011;38661;53.152;5.846;2023-10-09T08:32:36;18.27;;;8.98;;
52786;SDS011;38661;53.152;5.846;2023-10-09T08:35:06;23.45;;;9.15;;
52786;SDS011;38661;53.152;5.846;2023-10-09T08:37:57;21.65;;;9.07;;
52786;SDS011;38661;53.152;5.846;2023-10-09T08:40:37;17.55;;;7.65;;
52786;SDS011;38661;53.152;5.846;2023-10-09T08:43:17;23.52;;;8.43;;
52786;SDS011;38661;53.152;5.846;2023-10-09T08:45:45;21.13;;;8.38;;
52786;SDS011;38661;53.152;5.846;2023-10-09T08:50:45;21.85;;;9.77;;
52786;SDS011;38661;53.152;5.846;2023-10-09T08:53:14;20.05;;;8.57;;
52786;SDS011;38661;53.152;5.846;2023-10-09T08:55:44;21.33;;;9.98;;
52786;SDS011;38661;53.152;5.846;2023-10-09T08:58:11;23.55;;;9.50;;
52786;SDS011;38661;53.152;5.846;2023-10-09T09:01:01;19.50;;;9.30;;
52786;SDS011;38661;53.152;5.846;2023-10-09T09:03:37;22.08;;;9.23;;
52786;SDS011;38661;53.152;5.846;2023-10-09T09:06:08;23.80;;;9.18;;
52786;SDS011;38661;53.152;5.846;2023-10-09T09:08:35;18.08;;;8.27;;
52786;SDS011;38661;53.152;5.846;2023-10-09T09:11:08;21.70;;;7.93;;
52786;SDS011;38661;53.152;5.846;2023-10-09T09:13:41;19.45;;;8.77;;
52786;SDS011;38661;53.152;5.846;2023-10-09T09:16:17;30.15;;;8.95;;
52786;SDS011;38661;53.152;5.846;2023-10-09T09:18:51;16.38;;;7.88;;
52786;SDS011;38661;53.152;5.846;2023-10-09T09:21:49;28.25;;;8.98;;
52786;SDS011;38661;53.152;5.846;2023-10-09T09:24:24;16.83;;;8.93;;
52786;SDS011;38661;53.152;5.846;2023-10-09T09:26:50;25.10;;;9.43;;
52786;SDS011;38661;53.152;5.846;2023-10-09T09:32:02;22.17;;;8.70;;
52786;SDS011;38661;53.152;5.846;2023-10-09T09:34:45;20.30;;;8.38;;
52786;SDS011;38661;53.152;5.846;2023-10-09T09:37:18;21.33;;;8.98;;
52786;SDS011;38661;53.152;5.846;2023-10-09T09:39:45;25.17;;;8.32;;
52786;SDS011;38661;53.152;5.846;2023-10-09T09:42:14;21.42;;;8.15;;
52786;SDS011;38661;53.152;5.846;2023-10-09T09:44:50;21.02;;;8.98;;
52786;SDS011;38661;53.152;5.846;2023-10-09T09:47:16;20.05;;;8.40;;
52786;SDS011;38661;53.152;5.846;2023-10-09T09:49:50;18.27;;;8.68;;
52786;SDS011;38661;53.152;5.846;2023-10-09T09:54:51;24.38;;;8.40;;
52786;SDS011;38661;53.152;5.846;2023-10-09T09:57:16;21.15;;;8.93;;
52786;SDS011;38661;53.152;5.846;2023-10-09T09:59:51;14.65;;;7.88;;
52786;SDS011;38661;53.152;5.846;2023-10-09T10:02:30;22.98;;;8.90;;
52786;SDS011;38661;53.152;5.846;2023-10-09T10:05:05;22.55;;;8.02;;
52786;SDS011;38661;53.152;5.846;2023-10-09T10:07:37;24.85;;;9.00;;
52786;SDS011;38661;53.152;5.846;2023-10-09T10:16:13;20.38;;;8.68;;
52786;SDS011;38661;53.152;5.846;2023-10-09T10:21:35;22.25;;;8.43;;
52786;SDS011;38661;53.152;5.846;2023-10-09T10:29:43;16.42;;;8.30;;
52786;SDS011;38661;53.152;5.846;2023-10-09T10:32:11;21.50;;;9.27;;
52786;SDS011;38661;53.152;5.846;2023-10-09T10:34:55;22.10;;;8.75;;
52786;SDS011;38661;53.152;5.846;2023-10-09T10:37:42;20.17;;;7.88;;
52786;SDS011;38661;53.152;5.846;2023-10-09T10:40:30;18.98;;;7.60;;
52786;SDS011;38661;53.152;5.846;2023-10-09T10:43:29;15.77;;;6.72;;
52786;SDS011;38661;53.152;5.846;2023-10-09T10:46:06;21.20;;;8.25;;
52786;SDS011;38661;53.152;5.846;2023-10-09T10:48:51;24.73;;;6.68;;
52786;SDS011;38661;53.152;5.846;2023-10-09T10:51:39;16.05;;;5.85;;
52786;SDS011;38661;53.152;5.846;2023-10-09T10:54:05;15.05;;;7.85;;
52786;SDS011;38661;53.152;5.846;2023-10-09T10:56:51;13.68;;;6.10;;
52786;SDS011;38661;53.152;5.846;2023-10-09T10:59:20;20.80;;;7.20;;
52786;SDS011;38661;53.152;5.846;2023-10-09T11:01:50;15.63;;;6.15;;
52786;SDS011;38661;53.152;5.846;2023-10-09T11:04:26;14.95;;;6.78;;
52786;SDS011;38661;53.152;5.846;2023-10-09T11:06:59;16.08;;;7.30;;
52786;SDS011;38661;53.152;5.846;2023-10-09T11:09:56;19.05;;;7.57;;
52786;SDS011;38661;53.152;5.846;2023-10-09T11:12:28;19.75;;;7.25;;
52786;SDS011;38661;53.152;5.846;2023-10-09T11:15:06;14.70;;;6.43;;
52786;SDS011;38661;53.152;5.846;2023-10-09T11:18:00;11.90;;;6.05;;
52786;SDS011;38661;53.152;5.846;2023-10-09T11:20:34;15.85;;;6.43;;
52786;SDS011;38661;53.152;5.846;2023-10-09T11:23:01;12.55;;;6.22;;
52786;SDS011;38661;53.152;5.846;2023-10-09T11:25:31;14.48;;;6.22;;
52786;SDS011;38661;53.152;5.846;2023-10-09T11:27:58;13.32;;;6.35;;
52786;SDS011;38661;53.152;5.846;2023-10-09T11:30:40;14.95;;;7.00;;
52786;SDS011;38661;53.152;5.846;2023-10-09T11:33:06;14.88;;;6.32;;
52786;SDS011;38661;53.152;5.846;2023-10-09T11:35:39;12.50;;;5.43;;
52786;SDS011;38661;53.152;5.846;2023-10-09T11:38:08;18.58;;;6.05;;
52786;SDS011;38661;53.152;5.846;2023-10-09T11:40:46;14.25;;;6.28;;
52786;SDS011;38661;53.152;5.846;2023-10-09T11:43:18;15.82;;;6.05;;
52786;SDS011;38661;53.152;5.846;2023-10-09T11:46:10;17.38;;;6.45;;
52786;SDS011;38661;53.152;5.846;2023-10-09T11:48:36;12.80;;;4.90;;
52786;SDS011;38661;53.152;5.846;2023-10-09T11:51:22;15.23;;;5.13;;
52786;SDS011;38661;53.152;5.846;2023-10-09T11:53:47;14.43;;;5.75;;
52786;SDS011;38661;53.152;5.846;2023-10-09T11:56:21;10.65;;;4.60;;
52786;SDS011;38661;53.152;5.846;2023-10-09T11:58:47;9.85;;;4.07;;
52786;SDS011;38661;53.152;5.846;2023-10-09T12:01:15;13.82;;;4.28;;
52786;SDS011;38661;53.152;5.846;2023-10-09T12:03:42;12.80;;;3.90;;
52786;SDS011;38661;53.152;5.846;2023-10-09T12:06:09;10.70;;;3.63;;
52786;SDS011;38661;53.152;5.846;2023-10-09T12:08:38;15.50;;;4.20;;
52786;SDS011;38661;53.152;5.846;2023-10-09T12:11:07;9.30;;;3.60;;
52786;SDS011;38661;53.152;5.846;2023-10-09T12:13:34;10.82;;;4.20;;
52786;SDS011;38661;53.152;5.846;2023-10-09T12:16:03;9.05;;;3.90;;
52786;SDS011;38661;53.152;5.846;2023-10-09T12:18:33;10.32;;;3.75;;
52786;SDS011;38661;53.152;5.846;2023-10-09T12:20:59;10.20;;;3.85;;
52786;SDS011;38661;53.152;5.846;2023-10-09T12:23:29;12.95;;;4.43;;
52786;SDS011;38661;53.152;5.846;2023-10-09T12:26:01;14.60;;;4.13;;
52786;SDS011;38661;53.152;5.846;2023-10-09T12:28:27;11.52;;;4.25;;
52786;SDS011;38661;53.152;5.846;2023-10-09T12:30:54;12.10;;;4.90;;
52786;SDS011;38661;53.152;5.846;2023-10-09T12:33:26;11.15;;;4.05;;
52786;SDS011;38661;53.152;5.846;2023-10-09T12:35:54;11.38;;;4.13;;
52786;SDS011;38661;53.152;5.846;2023-10-09T12:38:27;14.83;;;4.40;;
52786;SDS011;38661;53.152;5.846;2023-10-09T12:41:03;19.00;;;5.38;;
52786;SDS011;38661;53.152;5.846;2023-10-09T12:43:43;15.82;;;4.38;;
52786;SDS011;38661;53.152;5.846;2023-10-09T12:46:09;14.07;;;4.90;;
52786;SDS011;38661;53.152;5.846;2023-10-09T12:48:35;11.07;;;4.75;;
52786;SDS011;38661;53.152;5.846;2023-10-09T12:51:03;18.45;;;5.18;;
52786;SDS011;38661;53.152;5.846;2023-10-09T12:53:34;9.75;;;4.15;;
52786;SDS011;38661;53.152;5.846;2023-10-09T12:56:05;15.82;;;5.30;;
52786;SDS011;38661;53.152;5.846;2023-10-09T12:58:32;17.05;;;5.63;;
52786;SDS011;38661;53.152;5.846;2023-10-09T13:01:02;15.95;;;5.40;;
52786;SDS011;38661;53.152;5.846;2023-10-09T13:03:35;24.15;;;6.95;;
52786;SDS011;38661;53.152;5.846;2023-10-09T13:06:03;22.35;;;5.38;;
52786;SDS011;38661;53.152;5.846;2023-10-09T13:08:36;11.80;;;4.72;;
52786;SDS011;38661;53.152;5.846;2023-10-09T13:11:06;12.88;;;5.10;;
52786;SDS011;38661;53.152;5.846;2023-10-09T13:13:36;16.23;;;5.57;;
52786;SDS011;38661;53.152;5.846;2023-10-09T13:16:16;15.15;;;4.90;;
52786;SDS011;38661;53.152;5.846;2023-10-09T13:18:49;18.80;;;4.30;;
52786;SDS011;38661;53.152;5.846;2023-10-09T13:21:16;13.85;;;4.47;;
52786;SDS011;38661;53.152;5.846;2023-10-09T13:23:45;22.67;;;5.30;;
52786;SDS011;38661;53.152;5.846;2023-10-09T13:26:12;12.15;;;4.00;;
52786;SDS011;38661;53.152;5.846;2023-10-09T13:28:55;13.63;;;5.13;;
52786;SDS011;38661;53.152;5.846;2023-10-09T13:31:22;13.63;;;5.03;;
52786;SDS011;38661;53.152;5.846;2023-10-09T13:33:55;13.27;;;4.85;;
52786;SDS011;38661;53.152;5.846;2023-10-09T13:36:25;8.57;;;3.75;;
52786;SDS011;38661;53.152;5.846;2023-10-09T13:38:57;10.95;;;3.17;;
52786;SDS011;38661;53.152;5.846;2023-10-09T13:41:39;7.30;;;3.00;;
52786;SDS011;38661;53.152;5.846;2023-10-09T13:44:07;12.50;;;3.45;;
52786;SDS011;38661;53.152;5.846;2023-10-09T13:46:34;10.50;;;4.18;;
52786;SDS011;38661;53.152;5.846;2023-10-09T13:49:06;13.65;;;4.13;;
52786;SDS011;38661;53.152;5.846;2023-10-09T13:51:38;12.15;;;4.32;;
52786;SDS011;38661;53.152;5.846;2023-10-09T13:54:09;13.20;;;3.88;;
52786;SDS011;38661;53.152;5.846;2023-10-09T13:56:35;12.25;;;4.70;;
52786;SDS011;38661;53.152;5.846;2023-10-09T13:59:04;7.80;;;3.55;;
52786;SDS011;38661;53.152;5.846;2023-10-09T14:01:39;11.68;;;3.28;;
52786;SDS011;38661;53.152;5.846;2023-10-09T14:04:05;11.07;;;3.72;;
52786;SDS011;38661;53.152;5.846;2023-10-09T14:06:32;9.52;;;3.30;;
52786;SDS011;38661;53.152;5.846;2023-10-09T14:09:04;11.80;;;4.00;;
52786;SDS011;38661;53.152;5.846;2023-10-09T14:11:31;8.82;;;2.90;;
52786;SDS011;38661;53.152;5.846;2023-10-09T14:13:57;7.15;;;2.85;;
52786;SDS011;38661;53.152;5.846;2023-10-09T14:16:26;8.75;;;3.72;;
52786;SDS011;38661;53.152;5.846;2023-10-09T14:18:56;9.10;;;3.28;;
52786;SDS011;38661;53.152;5.846;2023-10-09T14:21:26;10.15;;;3.30;;
52786;SDS011;38661;53.152;5.846;2023-10-09T14:23:56;9.65;;;3.30;;
52786;SDS011;38661;53.152;5.846;2023-10-09T14:26:28;9.48;;;3.22;;
52786;SDS011;38661;53.152;5.846;2023-10-09T14:28:55;11.15;;;3.50;;
52786;SDS011;38661;53.152;5.846;2023-10-09T14:31:24;9.50;;;3.45;;
52786;SDS011;38661;53.152;5.846;2023-10-09T14:33:54;11.98;;;3.40;;
52786;SDS011;38661;53.152;5.846;2023-10-09T14:36:23;9.55;;;3.20;;
52786;SDS011;38661;53.152;5.846;2023-10-09T14:38:58;8.27;;;3.00;;
52786;SDS011;38661;53.152;5.846;2023-10-09T14:41:29;10.13;;;3.45;;
52786;SDS011;38661;53.152;5.846;2023-10-09T14:43:58;10.60;;;3.75;;
52786;SDS011;38661;53.152;5.846;2023-10-09T14:46:24;10.52;;;3.58;;
52786;SDS011;38661;53.152;5.846;2023-10-09T14:48:56;13.27;;;5.00;;
52786;SDS011;38661;53.152;5.846;2023-10-09T14:51:22;7.43;;;3.28;;
52786;SDS011;38661;53.152;5.846;2023-10-09T14:53:58;8.68;;;3.50;;
52786;SDS011;38661;53.152;5.846;2023-10-09T14:56:29;7.57;;;3.13;;
52786;SDS011;38661;53.152;5.846;2023-10-09T14:58:59;10.02;;;2.85;;
52786;SDS011;38661;53.152;5.846;2023-10-09T15:01:25;8.35;;;3.38;;
52786;SDS011;38661;53.152;5.846;2023-10-09T15:03:54;9.82;;;3.22;;
52786;SDS011;38661;53.152;5.846;2023-10-09T15:06:23;8.27;;;3.08;;
52786;SDS011;38661;53.152;5.846;2023-10-09T15:08:49;8.20;;;2.88;;
52786;SDS011;38661;53.152;5.846;2023-10-09T15:11:15;3.65;;;2.08;;
52786;SDS011;38661;53.152;5.846;2023-10-09T15:13:41;6.35;;;2.45;;
52786;SDS011;38661;53.152;5.846;2023-10-09T15:16:07;9.27;;;2.30;;
52786;SDS011;38661;53.152;5.846;2023-10-09T15:18:33;4.22;;;2.10;;
52786;SDS011;38661;53.152;5.846;2023-10-09T15:20:59;8.85;;;2.58;;
52786;SDS011;38661;53.152;5.846;2023-10-09T15:23:25;5.97;;;2.38;;
52786;SDS011;38661;53.152;5.846;2023-10-09T15:25:52;5.88;;;2.20;;
52786;SDS011;38661;53.152;5.846;2023-10-09T15:28:21;6.72;;;2.90;;
52786;SDS011;38661;53.152;5.846;2023-10-09T15:30:47;6.85;;;2.55;;
52786;SDS011;38661;53.152;5.846;2023-10-09T15:33:17;6.55;;;2.35;;
52786;SDS011;38661;53.152;5.846;2023-10-09T15:35:44;6.53;;;2.80;;
52786;SDS011;38661;53.152;5.846;2023-10-09T15:38:11;9.63;;;3.67;;
52786;SDS011;38661;53.152;5.846;2023-10-09T15:40:38;11.40;;;3.38;;